Time;durP1;ratioP1;P1;durP2;ratioP2;P2;SDS_P1;SDS_P2;PMS_P1;PMS_P2;Temp;Humidity;BMP_temperature;BMP_pressure;BME280_temperature;BME280_humidity;BME280_pressure;Samples;Min_cycle;Max_cycle;Signal;HPM_P1;HPM_P2
2023/11/10 00:00:11;;;;;;;22.00;10.50;;;;;;;3.67;70.83;101533.95;108194;1247;108318;-61
2023/11/10 00:03:00;;;;;;;20.50;9.50;;;;;;;3.64;70.73;101535.86;108229;1244;99170;-63
2023/11/10 00:05:29;;;;;;;22.30;10.60;;;;;;;3.63;70.42;101533.27;108523;1244;99250;-62
2023/11/10 00:07:58;;;;;;;22.70;10.00;;;;;;;3.63;70.71;101529.86;108401;1244;112426;-62
2023/11/10 00:10:27;;;;;;;26.20;12.00;;;;;;;3.63;70.43;101525.43;108209;1244;109091;-62
2023/11/10 00:12:55;;;;;;;23.80;10.40;;;;;;;3.62;70.55;101523.18;108274;1248;108164;-62
2023/11/10 00:15:24;;;;;;;20.70;11.10;;;;;;;3.61;70.70;101523.77;108211;1244;99086;-63
2023/11/10 00:17:53;;;;;;;20.90;10.70;;;;;;;3.58;70.52;101519.81;108243;1245;99848;-63
2023/11/10 00:20:22;;;;;;;29.00;10.10;;;;;;;3.58;70.79;101518.92;108214;1249;112654;-62
2023/11/10 00:22:52;;;;;;;25.90;10.10;;;;;;;3.57;71.19;101519.34;108496;1248;108715;-62
2023/11/10 00:25:21;;;;;;;22.00;10.80;;;;;;;3.57;71.54;101517.71;108341;1244;106806;-61
2023/11/10 00:27:49;;;;;;;23.00;11.10;;;;;;;3.61;71.98;101505.48;108189;1244;99294;-62
2023/11/10 00:30:19;;;;;;;21.60;10.40;;;;;;;3.60;71.72;101506.58;108292;1243;99595;-62
2023/11/10 00:32:48;;;;;;;21.40;9.80;;;;;;;3.62;71.48;101501.70;108858;1245;113965;-63
2023/11/10 00:35:16;;;;;;;20.40;10.60;;;;;;;3.64;71.82;101504.62;108205;1244;110789;-63
2023/11/10 00:37:45;;;;;;;21.10;10.30;;;;;;;3.68;71.91;101504.25;108211;1249;107888;-62
2023/11/10 00:40:14;;;;;;;19.10;10.20;;;;;;;3.74;71.83;101504.67;108532;1244;99176;-61
2023/11/10 00:42:42;;;;;;;22.60;10.40;;;;;;;3.79;71.82;101497.70;108488;1244;99307;-63
2023/11/10 00:45:11;;;;;;;25.30;9.30;;;;;;;3.81;71.90;101500.83;108119;1245;113601;-62
2023/11/10 00:47:40;;;;;;;24.90;11.40;;;;;;;3.79;71.76;101498.23;108228;1244;109857;-63
2023/11/10 00:50:10;;;;;;;19.30;9.40;;;;;;;3.74;71.44;101492.09;107997;1244;108476;-62
2023/11/10 00:52:39;;;;;;;24.90;10.00;;;;;;;3.68;71.44;101494.52;108441;1244;99164;-64
2023/11/10 00:55:07;;;;;;;19.70;9.50;;;;;;;3.60;71.35;101493.48;108345;1244;99692;-63
2023/11/10 00:57:36;;;;;;;21.70;8.90;;;;;;;3.53;71.36;101492.03;108370;1244;113550;-62
2023/11/10 01:00:06;;;;;;;21.60;9.90;;;;;;;3.49;71.79;101488.31;108128;1244;109003;-62
2023/11/10 01:02:34;;;;;;;20.50;9.40;;;;;;;3.38;72.02;101487.74;108775;1243;108123;-63
2023/11/10 01:05:03;;;;;;;20.10;9.00;;;;;;;3.29;72.06;101482.34;108885;1245;99162;-62
2023/11/10 01:07:31;;;;;;;18.40;9.00;;;;;;;3.30;72.35;101476.59;108913;1244;99079;-63
2023/11/10 01:09:59;;;;;;;24.50;9.70;;;;;;;3.32;73.10;101480.40;108140;1243;112701;-63
2023/11/10 01:12:28;;;;;;;23.30;10.70;;;;;;;3.33;73.14;101478.09;108518;1243;110028;-62
2023/11/10 01:14:56;;;;;;;16.80;8.50;;;;;;;3.33;73.61;101464.58;108088;1244;110522;-63
2023/11/10 01:17:24;;;;;;;16.50;9.10;;;;;;;3.30;74.28;101473.23;108081;1251;99203;-62
2023/11/10 01:19:52;;;;;;;22.60;9.10;;;;;;;3.29;74.20;101466.70;108204;1245;99034;-62
2023/11/10 01:22:20;;;;;;;17.90;8.30;;;;;;;3.32;73.94;101470.17;108594;1245;113655;-62
2023/11/10 01:24:48;;;;;;;16.80;8.60;;;;;;;3.35;74.18;101462.38;108503;1247;109061;-62
2023/11/10 01:27:18;;;;;;;14.60;7.90;;;;;;;3.38;74.19;101455.30;108348;1248;109182;-62
2023/11/10 01:29:46;;;;;;;17.50;8.80;;;;;;;3.44;75.02;101462.48;108500;1247;99202;-61
2023/11/10 01:32:15;;;;;;;15.30;7.90;;;;;;;3.47;74.64;101460.94;108355;1244;99162;-61
2023/11/10 01:34:43;;;;;;;16.40;7.40;;;;;;;3.50;74.72;101458.63;108237;1245;113231;-62
2023/11/10 01:37:11;;;;;;;18.70;8.20;;;;;;;3.56;74.56;101456.23;108104;1244;110175;-63
2023/11/10 01:39:40;;;;;;;17.00;8.10;;;;;;;3.61;74.58;101456.71;108210;1244;108220;-63
2023/11/10 01:42:09;;;;;;;17.70;7.00;;;;;;;3.66;74.85;101458.08;108135;1245;99195;-62
2023/11/10 01:44:38;;;;;;;18.50;6.70;;;;;;;3.71;75.07;101455.68;108250;1244;99089;-62
2023/11/10 01:47:07;;;;;;;12.00;7.10;;;;;;;3.76;75.18;101451.02;108311;1245;112932;-62
2023/11/10 01:49:38;;;;;;;16.50;5.90;;;;;;;3.83;75.48;101450.67;108408;1246;109840;-63
2023/11/10 01:52:07;;;;;;;10.40;6.40;;;;;;;4.05;76.24;101436.42;108395;1244;108304;-61
2023/11/10 01:54:36;;;;;;;11.90;6.40;;;;;;;4.19;75.50;101433.23;108329;1245;99205;-63
2023/11/10 01:57:05;;;;;;;15.80;7.00;;;;;;;4.23;75.19;101438.34;108199;1244;99112;-63
2023/11/10 01:59:34;;;;;;;16.60;7.50;;;;;;;4.27;75.51;101430.38;108161;1249;112516;-63
2023/11/10 02:02:03;;;;;;;13.70;6.40;;;;;;;4.30;75.12;101433.95;108333;1247;110114;-61
2023/11/10 02:04:33;;;;;;;13.30;7.40;;;;;;;4.32;74.91;101425.66;108351;1246;108487;-62
2023/11/10 02:07:02;;;;;;;12.80;6.20;;;;;;;4.36;74.89;101423.15;108372;1246;99170;-61
2023/11/10 02:09:30;;;;;;;9.80;6.00;;;;;;;4.38;74.56;101415.98;108375;1247;99265;-63
2023/11/10 02:11:59;;;;;;;13.50;6.90;;;;;;;4.37;74.41;101420.25;108152;1244;113402;-61
2023/11/10 02:14:27;;;;;;;16.70;7.20;;;;;;;4.37;74.51;101418.83;108337;1244;109356;-62
2023/11/10 02:16:55;;;;;;;12.80;6.20;;;;;;;4.38;74.39;101418.26;108337;1249;107183;-62
2023/11/10 02:19:24;;;;;;;16.10;8.30;;;;;;;4.38;74.34;101420.55;108126;1245;99195;-63
2023/11/10 02:21:52;;;;;;;11.20;6.30;;;;;;;4.41;74.41;101416.00;108190;1247;99202;-61
2023/11/10 02:24:24;;;;;;;15.80;6.20;;;;;;;4.43;74.38;101415.53;108127;1247;114222;-62
2023/11/10 02:26:53;;;;;;;16.90;5.80;;;;;;;4.40;74.23;101411.92;108207;1245;108741;-62
2023/11/10 02:29:22;;;;;;;15.40;6.10;;;;;;;4.40;74.48;101417.27;108552;1247;106732;-62
2023/11/10 02:31:50;;;;;;;16.00;6.90;;;;;;;4.38;74.35;101417.17;108184;1244;99182;-62
2023/11/10 02:34:19;;;;;;;17.30;6.30;;;;;;;4.37;74.16;101419.16;108229;1249;99311;-62
2023/11/10 02:36:47;;;;;;;17.40;6.80;;;;;;;4.37;74.35;101417.41;108260;1249;113296;-62
2023/11/10 02:39:16;;;;;;;24.50;7.00;;;;;;;4.40;75.30;101415.99;108585;1244;109949;-63
2023/11/10 02:41:45;;;;;;;12.00;5.30;;;;;;;4.46;74.84;101420.66;108346;1245;108125;-62
2023/11/10 02:44:13;;;;;;;12.40;6.00;;;;;;;4.46;74.59;101421.56;108158;1244;99158;-62
2023/11/10 02:46:42;;;;;;;13.60;6.90;;;;;;;4.44;74.46;101423.27;108143;1244;99073;-62
2023/11/10 02:49:11;;;;;;;13.50;6.00;;;;;;;4.42;74.25;101418.25;108417;1246;113628;-62
2023/11/10 02:51:40;;;;;;;18.20;7.20;;;;;;;4.38;73.87;101417.89;108328;1244;109885;-62
2023/11/10 02:54:08;;;;;;;15.30;6.40;;;;;;;4.34;73.99;101414.21;108436;1243;107821;-62
2023/11/10 02:56:38;;;;;;;13.60;5.20;;;;;;;4.31;74.45;101408.85;108156;1249;99290;-61
2023/11/10 02:59:07;;;;;;;13.90;5.90;;;;;;;4.24;74.97;101416.30;108601;1244;99208;-63
2023/11/10 03:01:36;;;;;;;11.10;6.30;;;;;;;4.18;74.82;101414.69;108578;1244;113509;-62
2023/11/10 03:04:05;;;;;;;14.40;6.10;;;;;;;4.17;74.77;101417.40;108155;1245;109717;-63
2023/11/10 03:06:34;;;;;;;13.80;5.90;;;;;;;4.17;74.92;101415.98;108194;1244;108687;-63
2023/11/10 03:09:03;;;;;;;10.00;6.10;;;;;;;4.15;75.51;101411.46;108166;1245;99165;-63
2023/11/10 03:11:31;;;;;;;15.70;6.90;;;;;;;4.20;76.18;101405.16;108569;1244;99727;-63
2023/11/10 03:13:59;;;;;;;12.80;7.60;;;;;;;4.26;75.81;101404.86;108598;1244;112735;-62
2023/11/10 03:16:27;;;;;;;15.00;6.20;;;;;;;4.29;75.45;101408.58;108586;1248;109766;-63
2023/11/10 03:18:56;;;;;;;12.90;7.50;;;;;;;4.29;75.34;101402.05;108546;1244;108330;-62
2023/11/10 03:21:26;;;;;;;11.00;6.20;;;;;;;4.31;75.42;101404.39;108421;1245;99261;-61
2023/11/10 03:23:54;;;;;;;14.10;6.10;;;;;;;4.31;75.19;101399.95;108133;1245;99808;-62
2023/11/10 03:26:23;;;;;;;10.50;6.50;;;;;;;4.31;75.39;101406.38;108105;1246;113213;-62
2023/11/10 03:28:52;;;;;;;20.20;6.40;;;;;;;4.31;75.25;101397.50;108453;1243;109081;-63
2023/11/10 03:31:21;;;;;;;13.70;7.10;;;;;;;4.30;75.13;101393.61;108241;1245;108257;-63
2023/11/10 03:33:49;;;;;;;17.90;7.40;;;;;;;4.32;75.22;101392.83;108162;1246;99413;-62
2023/11/10 03:36:18;;;;;;;16.30;6.90;;;;;;;4.34;75.20;101393.09;108104;1244;99801;-63
2023/11/10 03:38:46;;;;;;;17.90;6.90;;;;;;;4.35;75.06;101387.67;108529;1244;112871;-61
2023/11/10 03:41:14;;;;;;;13.10;5.80;;;;;;;4.38;75.36;101391.95;108477;1244;109158;-62
2023/11/10 03:43:44;;;;;;;14.20;5.70;;;;;;;4.49;76.02;101384.14;108100;1246;108158;-61
2023/11/10 03:46:13;;;;;;;15.60;6.20;;;;;;;4.60;76.16;101381.21;108157;1246;99164;-62
2023/11/10 03:48:41;;;;;;;11.50;5.90;;;;;;;4.66;76.14;101379.46;108186;1247;99068;-61
2023/11/10 03:51:11;;;;;;;10.90;6.00;;;;;;;4.74;76.48;101376.75;108256;1244;113107;-61
2023/11/10 03:53:41;;;;;;;10.40;6.00;;;;;;;4.81;76.45;101375.12;108200;1244;109494;-62
2023/11/10 03:56:10;;;;;;;10.80;6.30;;;;;;;4.85;76.14;101373.09;108542;1244;107176;-62
2023/11/10 03:58:38;;;;;;;10.10;5.00;;;;;;;4.91;76.42;101364.23;108581;1244;99288;-62
2023/11/10 04:01:10;;;;;;;8.90;4.90;;;;;;;4.99;77.04;101366.30;108262;1244;99208;-63
2023/11/10 04:03:42;;;;;;;9.90;4.30;;;;;;;5.13;77.18;101370.36;108196;1246;113434;-63
2023/11/10 04:06:11;;;;;;;11.10;5.20;;;;;;;5.22;76.87;101359.52;108414;1244;109984;-63
2023/11/10 04:08:39;;;;;;;9.50;5.10;;;;;;;5.31;76.93;101359.92;108352;1245;108814;-62
2023/11/10 04:11:09;;;;;;;10.30;4.90;;;;;;;5.38;76.90;101359.34;108194;1244;99157;-63
2023/11/10 04:13:39;;;;;;;8.80;5.10;;;;;;;5.43;76.47;101359.77;108581;1248;98442;-62
2023/11/10 04:16:21;;;;;;;8.40;5.10;;;;;;;5.46;76.54;101356.01;108523;1244;113177;-63
2023/11/10 04:18:51;;;;;;;9.00;4.80;;;;;;;5.51;76.44;101353.79;108210;1244;110369;-63
2023/11/10 04:21:24;;;;;;;11.30;5.00;;;;;;;5.57;76.47;101352.73;108492;1244;108097;-63
2023/11/10 04:23:53;;;;;;;14.80;4.90;;;;;;;5.61;76.12;101358.93;108546;1244;98994;-62
2023/11/10 04:26:22;;;;;;;9.40;5.00;;;;;;;5.62;76.10;101357.94;108547;1244;99707;-63
2023/11/10 04:28:50;;;;;;;14.00;5.60;;;;;;;5.67;76.34;101364.30;108574;1244;113370;-63
2023/11/10 04:31:19;;;;;;;9.70;5.60;;;;;;;5.70;76.08;101362.69;108514;1245;109048;-63
2023/11/10 04:33:48;;;;;;;7.90;5.10;;;;;;;5.73;76.23;101361.45;108223;1246;108017;-61
2023/11/10 04:36:17;;;;;;;8.40;5.20;;;;;;;5.76;76.09;101362.85;108264;1245;99219;-60
2023/11/10 04:38:47;;;;;;;14.10;5.80;;;;;;;5.77;75.71;101365.81;108198;1245;99810;-61
2023/11/10 04:41:16;;;;;;;11.30;5.70;;;;;;;5.77;75.51;101365.41;108207;1244;112928;-62
2023/11/10 04:43:45;;;;;;;15.40;6.20;;;;;;;5.76;75.58;101364.95;108173;1246;109365;-62
2023/11/10 04:46:13;;;;;;;14.70;6.50;;;;;;;5.74;75.23;101359.91;108134;1244;108077;-62
2023/11/10 04:48:41;;;;;;;12.20;6.80;;;;;;;5.74;75.29;101362.92;108144;1247;99188;-62
2023/11/10 04:51:10;;;;;;;16.50;6.10;;;;;;;5.76;75.59;101364.46;108218;1245;99781;-62
2023/11/10 04:53:39;;;;;;;13.10;5.70;;;;;;;5.75;75.35;101352.90;108151;1246;111830;-63
2023/11/10 04:56:08;;;;;;;24.70;6.90;;;;;;;5.79;75.55;101361.02;108238;1244;108910;-63
2023/11/10 04:58:36;;;;;;;17.10;6.00;;;;;;;5.82;75.71;101361.77;108543;1244;108111;-61
2023/11/10 05:01:06;;;;;;;29.00;7.90;;;;;;;5.83;75.65;101362.80;108547;1244;99636;-62
2023/11/10 05:03:34;;;;;;;15.60;6.60;;;;;;;5.84;75.55;101357.18;108395;1246;100428;-64
2023/11/10 05:06:02;;;;;;;26.00;6.90;;;;;;;5.84;75.24;101362.04;108183;1245;113274;-63
2023/11/10 05:08:30;;;;;;;30.00;7.30;;;;;;;5.81;74.98;101365.19;108377;1248;108647;-61
2023/11/10 05:10:59;;;;;;;28.80;6.90;;;;;;;5.80;75.25;101373.09;108157;1244;108450;-61
2023/11/10 05:13:27;;;;;;;16.30;7.60;;;;;;;5.83;75.26;101367.05;108502;1249;99175;-62
2023/11/10 05:15:55;;;;;;;18.10;7.00;;;;;;;5.83;75.05;101361.55;108563;1244;99823;-61
2023/11/10 05:18:27;;;;;;;27.40;7.20;;;;;;;5.84;75.24;101367.02;108372;1247;113312;-60
2023/11/10 05:20:59;;;;;;;15.20;6.80;;;;;;;5.86;75.06;101373.81;108210;1245;108214;-60
2023/11/10 05:23:28;;;;;;;15.50;7.30;;;;;;;5.88;75.04;101372.84;108205;1244;108662;-62
2023/11/10 05:25:56;;;;;;;25.50;7.00;;;;;;;5.88;74.77;101374.77;108119;1247;99185;-62
2023/11/10 05:28:24;;;;;;;23.30;6.40;;;;;;;5.88;74.52;101378.84;108521;1244;100237;-61
2023/11/10 05:30:53;;;;;;;38.00;8.00;;;;;;;5.88;74.51;101377.11;108557;1248;113090;-63
2023/11/10 05:33:22;;;;;;;21.70;7.70;;;;;;;5.89;74.66;101381.83;108491;1244;108474;-61
2023/11/10 05:35:50;;;;;;;23.60;7.60;;;;;;;5.92;74.53;101387.90;108324;1244;107023;-62
2023/11/10 05:38:18;;;;;;;34.50;8.40;;;;;;;5.94;74.60;101385.11;108322;1245;99170;-61
2023/11/10 05:40:46;;;;;;;23.80;9.50;;;;;;;5.95;74.39;101384.88;108371;1244;99190;-62
2023/11/10 05:43:15;;;;;;;20.80;7.30;;;;;;;5.97;74.49;101387.78;108175;1244;112461;-62
2023/11/10 05:45:45;;;;;;;19.70;6.40;;;;;;;6.01;74.60;101386.48;108364;1244;109976;-62
2023/11/10 05:48:13;;;;;;;11.30;6.00;;;;;;;6.11;74.61;101389.83;108323;1247;106670;-62
2023/11/10 05:50:45;;;;;;;14.40;5.60;;;;;;;6.21;74.78;101394.23;108229;1244;99186;-62
2023/11/10 05:53:14;;;;;;;34.90;18.90;;;;;;;6.29;74.64;101392.54;108189;1244;99059;-62
2023/11/10 05:55:43;;;;;;;12.90;5.60;;;;;;;6.37;74.68;101382.96;108354;1247;113155;-63
2023/11/10 05:58:12;;;;;;;15.40;5.90;;;;;;;6.49;75.07;101387.02;108265;1247;110733;-62
2023/11/10 06:00:42;;;;;;;14.20;5.10;;;;;;;6.63;74.85;101383.13;108232;1249;107524;-62
2023/11/10 06:03:10;;;;;;;13.60;5.30;;;;;;;6.81;74.97;101377.91;108356;1247;99233;-62
2023/11/10 06:05:39;;;;;;;11.20;5.40;;;;;;;6.99;74.74;101386.57;108165;1244;99167;-61
2023/11/10 06:08:08;;;;;;;14.00;5.80;;;;;;;7.19;74.66;101384.61;108208;1245;112302;-61
2023/11/10 06:10:36;;;;;;;10.70;4.90;;;;;;;7.38;74.29;101390.48;108204;1246;109547;-63
2023/11/10 06:13:05;;;;;;;11.30;4.00;;;;;;;7.51;74.04;101393.04;108203;1245;107205;-63
2023/11/10 06:15:35;;;;;;;11.60;5.40;;;;;;;7.64;74.04;101396.15;108190;1246;99214;-62
2023/11/10 06:18:04;;;;;;;13.30;5.70;;;;;;;7.75;73.95;101398.45;108270;1244;99172;-65
2023/11/10 06:20:32;;;;;;;14.00;4.70;;;;;;;7.86;73.73;101396.64;108214;1249;111585;-63
2023/11/10 06:23:00;;;;;;;11.60;4.70;;;;;;;7.96;73.49;101396.64;108221;1245;109821;-63
2023/11/10 06:25:28;;;;;;;15.60;4.50;;;;;;;8.06;73.27;101388.54;108206;1249;107397;-62
2023/11/10 06:27:57;;;;;;;16.20;5.40;;;;;;;8.16;73.10;101395.84;108299;1244;99090;-62
2023/11/10 06:30:25;;;;;;;12.10;6.00;;;;;;;8.26;72.90;101392.89;108383;1244;99794;-62
2023/11/10 06:32:54;;;;;;;14.00;8.10;;;;;;;8.38;73.07;101387.76;108241;1247;112063;-63
2023/11/10 06:35:22;;;;;;;10.00;5.10;;;;;;;8.48;72.59;101392.44;108210;1245;109455;-62
2023/11/10 06:37:50;;;;;;;10.30;4.50;;;;;;;8.54;72.09;101388.48;108163;1249;108016;-62
2023/11/10 06:40:18;;;;;;;13.50;4.90;;;;;;;8.59;71.90;101389.05;108415;1244;99248;-63
2023/11/10 06:42:47;;;;;;;10.10;4.90;;;;;;;8.64;71.69;101389.61;108328;1249;99293;-63
2023/11/10 06:45:15;;;;;;;12.40;5.00;;;;;;;8.67;71.61;101379.52;108457;1245;113179;-62
2023/11/10 06:47:43;;;;;;;11.60;3.90;;;;;;;8.73;71.25;101382.64;108489;1245;108943;-63
2023/11/10 06:50:11;;;;;;;15.20;4.60;;;;;;;8.80;70.87;101387.94;108304;1244;108446;-62
2023/11/10 06:52:40;;;;;;;6.50;4.00;;;;;;;8.88;70.66;101386.63;108392;1251;99170;-61
2023/11/10 06:55:13;;;;;;;10.60;3.90;;;;;;;8.96;70.64;101389.83;108572;1247;99105;-61
2023/11/10 06:57:44;;;;;;;7.60;4.40;;;;;;;9.04;70.59;101383.31;108471;1244;113221;-62
2023/11/10 07:00:13;;;;;;;16.50;4.20;;;;;;;9.13;70.30;101385.53;108540;1245;108313;-62
2023/11/10 07:02:42;;;;;;;13.30;4.40;;;;;;;9.23;70.12;101379.44;108457;1245;107644;-63
2023/11/10 07:05:11;;;;;;;9.20;3.60;;;;;;;9.31;69.85;101375.65;108324;1249;99180;-62
2023/11/10 07:07:39;;;;;;;6.60;3.10;;;;;;;9.42;69.33;101375.60;108490;1244;99184;-62
2023/11/10 07:10:08;;;;;;;9.60;3.30;;;;;;;9.52;69.22;101369.83;108239;1249;112695;-62
2023/11/10 07:12:36;;;;;;;16.60;4.20;;;;;;;9.61;69.07;101368.58;108279;1247;108138;-62
2023/11/10 07:15:05;;;;;;;8.90;3.30;;;;;;;9.72;68.52;101374.77;108531;1244;108795;-63
2023/11/10 07:17:35;;;;;;;14.40;3.80;;;;;;;9.83;68.49;101368.38;108230;1248;99207;-61
2023/11/10 07:20:05;;;;;;;5.40;3.40;;;;;;;9.94;68.35;101367.92;108280;1249;99705;-61
2023/11/10 07:22:33;;;;;;;8.20;3.90;;;;;;;10.06;67.47;101367.94;108122;1250;112143;-62
2023/11/10 07:25:03;;;;;;;10.00;4.50;;;;;;;10.16;67.09;101367.71;108462;1245;108860;-62
2023/11/10 07:27:31;;;;;;;14.10;4.00;;;;;;;10.26;67.05;101360.83;108063;1250;107649;-63
2023/11/10 07:29:59;;;;;;;7.20;3.10;;;;;;;10.38;66.06;101360.64;108157;1244;99195;-63
2023/11/10 07:32:30;;;;;;;6.50;2.60;;;;;;;10.49;65.46;101359.61;108206;1244;99848;-61
2023/11/10 07:34:58;;;;;;;7.10;2.80;;;;;;;10.59;64.96;101362.92;108484;1244;112516;-62
2023/11/10 07:37:34;;;;;;;11.60;3.70;;;;;;;10.70;64.27;101367.45;108505;1248;109703;-62
2023/11/10 07:40:05;;;;;;;10.20;3.20;;;;;;;10.80;63.85;101365.02;108215;1249;108732;-63
2023/11/10 07:42:36;;;;;;;5.50;3.00;;;;;;;10.89;63.86;101362.16;108282;1245;99275;-63
2023/11/10 07:45:05;;;;;;;7.70;3.40;;;;;;;11.00;63.13;101362.35;108435;1244;100891;-62
2023/11/10 07:47:33;;;;;;;9.20;2.80;;;;;;;11.11;62.99;101352.69;108418;1249;111853;-63
2023/11/10 07:50:01;;;;;;;6.20;3.00;;;;;;;11.21;62.74;101348.23;108378;1245;108864;-61
2023/11/10 07:52:30;;;;;;;9.80;3.20;;;;;;;11.34;61.73;101346.88;108329;1245;108220;-62
2023/11/10 07:54:58;;;;;;;9.20;3.30;;;;;;;11.44;61.71;101348.34;108325;1245;99248;-62
2023/11/10 07:57:28;;;;;;;8.80;2.90;;;;;;;11.54;61.74;101343.41;108449;1244;99182;-62
2023/11/10 07:59:56;;;;;;;8.00;2.60;;;;;;;11.64;61.02;101345.98;108374;1245;112480;-62
2023/11/10 08:02:25;;;;;;;17.30;3.20;;;;;;;11.76;60.39;101341.96;108180;1245;110385;-62
2023/11/10 08:04:53;;;;;;;10.80;2.70;;;;;;;11.91;59.85;101349.16;108482;1245;106959;-62
2023/11/10 08:07:23;;;;;;;4.50;2.30;;;;;;;11.99;60.21;101337.84;108443;1244;99061;-62
2023/11/10 08:09:52;;;;;;;8.20;2.20;;;;;;;12.14;59.63;101339.52;108512;1245;99714;-62
2023/11/10 08:12:20;;;;;;;10.20;2.70;;;;;;;12.27;59.35;101331.86;108308;1245;112295;-61
2023/11/10 08:14:48;;;;;;;12.00;2.80;;;;;;;12.43;57.87;101336.99;108435;1245;109031;-62
2023/11/10 08:17:16;;;;;;;3.10;1.90;;;;;;;12.54;57.11;101334.40;107982;1245;108363;-63
2023/11/10 08:19:45;;;;;;;8.70;3.10;;;;;;;12.63;57.07;101323.39;108215;1244;99052;-62
2023/11/10 08:22:13;;;;;;;17.60;3.20;;;;;;;12.74;57.24;101325.14;108253;1244;99184;-67
2023/11/10 08:24:42;;;;;;;4.70;2.20;;;;;;;12.86;56.64;101322.73;108218;1244;113383;-63
2023/11/10 08:27:10;;;;;;;13.90;2.70;;;;;;;12.98;56.36;101315.80;108204;1244;109025;-62
2023/11/10 08:29:39;;;;;;;17.10;3.30;;;;;;;13.07;55.15;101321.98;108336;1245;106684;-62
2023/11/10 08:32:08;;;;;;;11.50;3.20;;;;;;;13.14;54.74;101324.21;108443;1245;99179;-64
2023/11/10 08:34:36;;;;;;;8.80;2.30;;;;;;;13.24;54.51;101323.52;108471;1245;99071;-62
2023/11/10 08:37:04;;;;;;;10.80;2.20;;;;;;;13.39;53.80;101327.72;108459;1245;113869;-63
2023/11/10 08:39:33;;;;;;;6.20;2.20;;;;;;;13.55;53.07;101320.34;108492;1248;109288;-63
2023/11/10 08:42:01;;;;;;;16.10;2.70;;;;;;;13.83;52.54;101322.81;108455;1245;107300;-63
2023/11/10 08:44:30;;;;;;;7.60;2.00;;;;;;;14.30;51.26;101325.98;108138;1249;99165;-62
2023/11/10 08:46:58;;;;;;;5.70;1.80;;;;;;;14.83;50.68;101317.98;108629;1243;99794;-63
2023/11/10 08:49:26;;;;;;;4.90;2.50;;;;;;;15.45;49.65;101324.00;108803;1245;113508;-62
2023/11/10 08:51:54;;;;;;;6.00;2.40;;;;;;;16.07;47.84;101314.46;108549;1245;109357;-62
2023/11/10 08:54:23;;;;;;;4.60;1.80;;;;;;;16.58;46.10;101315.91;108482;1248;107165;-63
2023/11/10 08:56:51;;;;;;;9.40;2.50;;;;;;;16.92;45.42;101310.16;108446;1245;99193;-62
2023/11/10 08:59:20;;;;;;;8.40;2.10;;;;;;;17.18;44.40;101306.48;108491;1248;99280;-63
2023/11/10 09:01:49;;;;;;;10.10;2.00;;;;;;;17.44;44.28;101301.52;108327;1248;112508;-65
2023/11/10 09:04:18;;;;;;;5.50;1.30;;;;;;;17.91;43.93;101297.95;108171;1250;110067;-63
2023/11/10 09:06:52;;;;;;;11.70;2.40;;;;;;;18.47;42.82;101295.01;108346;1244;107564;-62
2023/11/10 09:09:21;;;;;;;8.10;2.30;;;;;;;18.95;40.89;101287.73;108431;1248;99176;-64
2023/11/10 09:11:50;;;;;;;5.80;1.60;;;;;;;19.20;40.35;101284.83;108412;1245;99176;-63
2023/11/10 09:14:19;;;;;;;12.30;1.70;;;;;;;19.42;40.10;101285.85;108346;1248;112967;-63
2023/11/10 09:16:47;;;;;;;13.70;2.10;;;;;;;19.81;38.10;101290.18;108381;1244;108939;-64
2023/11/10 09:19:16;;;;;;;13.80;2.20;;;;;;;19.94;37.95;101277.31;108449;1248;108582;-63
2023/11/10 09:21:44;;;;;;;11.70;2.10;;;;;;;20.13;37.15;101282.92;108192;1244;99294;-64
2023/11/10 09:24:12;;;;;;;11.90;2.10;;;;;;;20.24;37.42;101273.05;108394;1244;99214;-63
2023/11/10 09:26:43;;;;;;;8.20;1.70;;;;;;;20.39;36.77;101280.79;108430;1244;112308;-63
2023/11/10 09:29:11;;;;;;;7.00;2.40;;;;;;;20.67;36.02;101268.84;108446;1250;109207;-63
2023/11/10 09:31:39;;;;;;;6.60;1.40;;;;;;;20.76;35.74;101271.54;108253;1245;107861;-62
2023/11/10 09:34:08;;;;;;;7.90;2.00;;;;;;;20.90;35.58;101275.70;108442;1244;99177;-63
2023/11/10 09:36:37;;;;;;;9.10;1.80;;;;;;;21.16;34.88;101277.57;108469;1244;99133;-63
2023/11/10 09:39:06;;;;;;;8.10;1.80;;;;;;;21.39;33.84;101280.47;108468;1245;113277;-63
2023/11/10 09:41:38;;;;;;;13.60;1.90;;;;;;;21.34;34.29;101269.95;108332;1244;109737;-63
2023/11/10 09:44:13;;;;;;;2.20;1.40;;;;;;;21.45;34.73;101268.90;108464;1245;108781;-63
2023/11/10 09:46:43;;;;;;;4.20;1.30;;;;;;;21.75;33.68;101272.98;108392;1244;99618;-62
2023/11/10 09:49:13;;;;;;;5.50;2.00;;;;;;;21.97;33.22;101256.46;108490;1245;99264;-64
2023/11/10 09:51:42;;;;;;;3.90;1.70;;;;;;;22.06;32.66;101251.30;108441;1248;113562;-63
2023/11/10 09:54:11;;;;;;;4.60;1.80;;;;;;;22.07;32.73;101254.13;108467;1244;110189;-63
2023/11/10 09:56:41;;;;;;;2.90;1.30;;;;;;;22.18;32.29;101253.02;108504;1247;107821;-63
2023/11/10 09:59:19;;;;;;;5.60;1.10;;;;;;;22.47;31.71;101243.83;104184;1292;636693;-64
2023/11/10 10:01:47;;;;;;;3.50;0.90;;;;;;;22.55;31.46;101235.81;106606;1269;95916;-63
2023/11/10 10:04:16;;;;;;;5.50;1.30;;;;;;;22.58;31.27;101227.89;106635;1267;95803;-64
2023/11/10 10:06:50;;;;;;;11.30;1.40;;;;;;;22.68;30.41;101228.77;106643;1266;107559;-64
2023/11/10 10:09:18;;;;;;;6.90;1.90;;;;;;;22.73;29.97;101212.05;106606;1268;109960;-65
2023/11/10 10:11:47;;;;;;;7.00;1.40;;;;;;;22.86;30.41;101208.09;106109;1267;575922;-64
2023/11/10 10:14:17;;;;;;;3.60;1.20;;;;;;;23.09;30.31;101196.45;106720;1263;95900;-65
2023/11/10 10:16:56;;;;;;;9.90;2.10;;;;;;;23.36;29.69;101196.83;106766;1264;95760;-62
2023/11/10 10:19:29;;;;;;;3.40;1.30;;;;;;;23.59;29.23;101183.89;106709;1266;107872;-63
2023/11/10 10:21:59;;;;;;;4.10;0.90;;;;;;;23.78;28.89;101177.29;106660;1264;109722;-63
2023/11/10 10:24:28;;;;;;;2.80;1.00;;;;;;;23.98;28.22;101166.73;106678;1264;108595;-63
2023/11/10 10:26:57;;;;;;;5.70;1.50;;;;;;;23.89;27.33;101163.14;106652;1264;95824;-64
2023/11/10 10:29:25;;;;;;;13.70;1.60;;;;;;;23.58;27.57;101164.68;106649;1267;95943;-64
2023/11/10 10:31:55;;;;;;;8.30;1.10;;;;;;;23.62;27.52;101161.75;106662;1264;109302;-63
2023/11/10 10:34:25;;;;;;;7.80;1.50;;;;;;;23.75;27.50;101159.08;106732;1267;109785;-63
2023/11/10 10:36:54;;;;;;;6.90;1.20;;;;;;;23.62;27.88;101149.13;107361;1257;108287;-64
2023/11/10 10:39:24;;;;;;;11.40;1.90;;;;;;;23.55;27.43;101147.79;107408;1254;95811;-63
2023/11/10 10:41:54;;;;;;;5.40;1.10;;;;;;;23.35;27.64;101156.85;107301;1254;95827;-62
2023/11/10 10:44:23;;;;;;;9.30;1.10;;;;;;;23.18;28.12;101144.38;107310;1254;108268;-63
2023/11/10 10:46:52;;;;;;;11.90;1.10;;;;;;;22.72;28.35;101139.75;107370;1254;110205;-63
2023/11/10 10:49:23;;;;;;;5.80;1.00;;;;;;;22.13;29.49;101142.67;107364;1254;108007;-66
2023/11/10 10:51:54;;;;;;;14.80;1.10;;;;;;;21.73;29.93;101142.17;107290;1258;96033;-63
2023/11/10 10:54:23;;;;;;;9.10;1.40;;;;;;;21.33;30.68;101135.71;107240;1254;95705;-63
2023/11/10 10:56:52;;;;;;;9.40;1.30;;;;;;;20.84;31.39;101144.20;107393;1254;108918;-63
2023/11/10 10:59:21;;;;;;;7.90;1.00;;;;;;;20.20;32.39;101141.28;107359;1254;108696;-64
2023/11/10 11:01:52;;;;;;;4.40;1.00;;;;;;;19.58;33.49;101134.76;107346;1254;108391;-63
2023/11/10 11:04:29;;;;;;;2.20;1.00;;;;;;;19.10;34.32;101140.16;107355;1254;95809;-63
2023/11/10 11:07:27;;;;;;;4.00;1.30;;;;;;;18.71;35.22;101128.17;107373;1253;95842;-62
2023/11/10 11:09:56;;;;;;;9.70;1.40;;;;;;;18.34;35.99;101127.92;107355;1254;108554;-64
2023/11/10 11:13:03;;;;;;;7.60;1.20;;;;;;;18.17;36.57;101122.64;107347;1256;109887;-62
2023/11/10 11:16:10;;;;;;;8.00;1.60;;;;;;;17.99;37.31;101108.92;107339;1259;108665;-63
2023/11/10 11:18:58;;;;;;;5.10;1.30;;;;;;;17.76;38.05;101116.05;106761;1260;95865;-62
2023/11/10 11:21:27;;;;;;;6.90;1.30;;;;;;;17.74;38.29;101113.33;106718;1261;95859;-62